Hopton on Sea, United Kingdom
Current Conditions -  °F | °C
As of 8:20 AM on Thursday 27 Nov 2014 (Local Time) from EGSD Reporting Station
Scattered Clouds Scattered Clouds  
Wind Chill: 54°   Ceiling: Unl
Heat Index: 54°   Visibility: 6mi
Dew Point: 52°   Wind: 6mph
Humidity: 94%   Direction: 160°SSE
Pressure: 29.65"   Gusts: NA
Location:  52.53°N, 1.73°E
Report Text: EGSD 270820Z 16005KT 090V210 9999 FEW010 SCT020 12/11 Q1004
Loading
Personal Weather Stations






























Interactive Weather Map New forecast layout! Learn more

10-Day Weather Forecast

Advertisements
Track Severe Weather on mobile